sensor_id;sensor_type;location;lat;lon;timestamp;P1;durP1;ratioP1;P2;durP2;ratioP2
11535;SDS011;5824;49.336;8.652;2023-03-11T00:00:22;1.63;;;1.20;;
11535;SDS011;5824;49.336;8.652;2023-03-11T00:02:50;2.10;;;1.23;;
11535;SDS011;5824;49.336;8.652;2023-03-11T00:05:20;3.27;;;1.07;;
11535;SDS011;5824;49.336;8.652;2023-03-11T00:07:48;1.80;;;1.10;;
11535;SDS011;5824;49.336;8.652;2023-03-11T00:10:15;1.77;;;1.37;;
11535;SDS011;5824;49.336;8.652;2023-03-11T00:12:51;1.30;;;0.97;;
11535;SDS011;5824;49.336;8.652;2023-03-11T00:15:17;1.73;;;1.00;;
11535;SDS011;5824;49.336;8.652;2023-03-11T00:17:43;1.57;;;0.90;;
11535;SDS011;5824;49.336;8.652;2023-03-11T00:20:14;2.20;;;1.10;;
11535;SDS011;5824;49.336;8.652;2023-03-11T00:22:42;1.77;;;1.00;;
11535;SDS011;5824;49.336;8.652;2023-03-11T00:25:09;5.10;;;1.00;;
11535;SDS011;5824;49.336;8.652;2023-03-11T00:27:35;3.10;;;1.50;;
11535;SDS011;5824;49.336;8.652;2023-03-11T00:30:01;1.30;;;1.20;;
11535;SDS011;5824;49.336;8.652;2023-03-11T00:32:27;1.20;;;1.10;;
11535;SDS011;5824;49.336;8.652;2023-03-11T00:34:52;2.60;;;1.10;;
11535;SDS011;5824;49.336;8.652;2023-03-11T00:37:18;1.10;;;1.00;;
11535;SDS011;5824;49.336;8.652;2023-03-11T00:39:43;2.40;;;1.00;;
11535;SDS011;5824;49.336;8.652;2023-03-11T00:42:09;1.30;;;1.20;;
11535;SDS011;5824;49.336;8.652;2023-03-11T00:44:34;2.07;;;1.20;;
11535;SDS011;5824;49.336;8.652;2023-03-11T00:47:00;2.33;;;1.20;;
11535;SDS011;5824;49.336;8.652;2023-03-11T00:49:25;4.40;;;1.30;;
11535;SDS011;5824;49.336;8.652;2023-03-11T00:51:51;1.10;;;1.00;;
11535;SDS011;5824;49.336;8.652;2023-03-11T00:54:16;3.50;;;1.03;;
11535;SDS011;5824;49.336;8.652;2023-03-11T00:56:42;2.37;;;1.20;;
11535;SDS011;5824;49.336;8.652;2023-03-11T00:59:07;1.63;;;1.00;;
11535;SDS011;5824;49.336;8.652;2023-03-11T01:01:33;1.27;;;1.00;;
11535;SDS011;5824;49.336;8.652;2023-03-11T01:03:58;2.20;;;1.13;;
11535;SDS011;5824;49.336;8.652;2023-03-11T01:06:24;2.17;;;1.20;;
11535;SDS011;5824;49.336;8.652;2023-03-11T01:08:50;2.03;;;1.10;;
11535;SDS011;5824;49.336;8.652;2023-03-11T01:11:15;1.80;;;1.20;;
11535;SDS011;5824;49.336;8.652;2023-03-11T01:13:40;2.90;;;1.20;;
11535;SDS011;5824;49.336;8.652;2023-03-11T01:16:06;3.73;;;1.30;;
11535;SDS011;5824;49.336;8.652;2023-03-11T01:18:33;4.30;;;1.10;;
11535;SDS011;5824;49.336;8.652;2023-03-11T01:20:58;2.23;;;1.20;;
11535;SDS011;5824;49.336;8.652;2023-03-11T01:23:24;3.00;;;1.30;;
11535;SDS011;5824;49.336;8.652;2023-03-11T01:25:49;2.30;;;1.50;;
11535;SDS011;5824;49.336;8.652;2023-03-11T01:28:15;4.00;;;1.10;;
11535;SDS011;5824;49.336;8.652;2023-03-11T01:30:41;1.50;;;1.23;;
11535;SDS011;5824;49.336;8.652;2023-03-11T01:33:08;2.43;;;1.30;;
11535;SDS011;5824;49.336;8.652;2023-03-11T01:35:41;1.73;;;1.10;;
11535;SDS011;5824;49.336;8.652;2023-03-11T01:38:07;1.80;;;1.40;;
11535;SDS011;5824;49.336;8.652;2023-03-11T01:40:35;2.03;;;1.20;;
11535;SDS011;5824;49.336;8.652;2023-03-11T01:43:03;1.73;;;1.27;;
11535;SDS011;5824;49.336;8.652;2023-03-11T01:48:14;2.80;;;1.40;;
11535;SDS011;5824;49.336;8.652;2023-03-11T01:50:45;1.97;;;1.40;;
11535;SDS011;5824;49.336;8.652;2023-03-11T01:53:13;1.20;;;1.00;;
11535;SDS011;5824;49.336;8.652;2023-03-11T01:55:40;3.00;;;1.50;;
11535;SDS011;5824;49.336;8.652;2023-03-11T01:58:07;2.47;;;1.60;;
11535;SDS011;5824;49.336;8.652;2023-03-11T02:00:36;3.97;;;1.40;;
11535;SDS011;5824;49.336;8.652;2023-03-11T02:03:05;2.60;;;1.23;;
11535;SDS011;5824;49.336;8.652;2023-03-11T02:05:38;3.70;;;1.60;;
11535;SDS011;5824;49.336;8.652;2023-03-11T02:08:05;2.23;;;1.27;;
11535;SDS011;5824;49.336;8.652;2023-03-11T02:10:31;4.70;;;1.37;;
11535;SDS011;5824;49.336;8.652;2023-03-11T02:12:56;3.30;;;1.30;;
11535;SDS011;5824;49.336;8.652;2023-03-11T02:15:22;2.70;;;1.17;;
11535;SDS011;5824;49.336;8.652;2023-03-11T02:17:48;2.40;;;1.30;;
11535;SDS011;5824;49.336;8.652;2023-03-11T02:23:04;6.03;;;1.40;;
11535;SDS011;5824;49.336;8.652;2023-03-11T02:25:33;3.93;;;1.53;;
11535;SDS011;5824;49.336;8.652;2023-03-11T02:28:20;2.50;;;1.20;;
11535;SDS011;5824;49.336;8.652;2023-03-11T02:30:47;2.13;;;1.20;;
11535;SDS011;5824;49.336;8.652;2023-03-11T02:33:14;1.53;;;1.43;;
11535;SDS011;5824;49.336;8.652;2023-03-11T02:35:40;1.90;;;1.20;;
11535;SDS011;5824;49.336;8.652;2023-03-11T02:38:06;1.70;;;1.30;;
11535;SDS011;5824;49.336;8.652;2023-03-11T02:43:33;3.63;;;1.10;;
11535;SDS011;5824;49.336;8.652;2023-03-11T02:46:07;4.93;;;1.20;;
11535;SDS011;5824;49.336;8.652;2023-03-11T02:48:35;2.90;;;1.10;;
11535;SDS011;5824;49.336;8.652;2023-03-11T02:51:02;4.00;;;1.20;;
11535;SDS011;5824;49.336;8.652;2023-03-11T02:53:29;2.87;;;1.40;;
11535;SDS011;5824;49.336;8.652;2023-03-11T02:55:57;2.43;;;1.23;;
11535;SDS011;5824;49.336;8.652;2023-03-11T02:58:23;1.63;;;1.17;;
11535;SDS011;5824;49.336;8.652;2023-03-11T03:00:48;5.90;;;1.37;;
11535;SDS011;5824;49.336;8.652;2023-03-11T03:03:14;5.17;;;1.33;;
11535;SDS011;5824;49.336;8.652;2023-03-11T03:05:39;6.53;;;1.40;;
11535;SDS011;5824;49.336;8.652;2023-03-11T03:08:05;1.60;;;1.27;;
11535;SDS011;5824;49.336;8.652;2023-03-11T03:10:31;7.07;;;1.53;;
11535;SDS011;5824;49.336;8.652;2023-03-11T03:12:57;4.27;;;1.20;;
11535;SDS011;5824;49.336;8.652;2023-03-11T03:15:22;2.70;;;1.73;;
11535;SDS011;5824;49.336;8.652;2023-03-11T03:17:48;2.80;;;1.50;;
11535;SDS011;5824;49.336;8.652;2023-03-11T03:20:15;4.87;;;1.57;;
11535;SDS011;5824;49.336;8.652;2023-03-11T03:22:42;3.23;;;1.57;;
11535;SDS011;5824;49.336;8.652;2023-03-11T03:25:08;2.03;;;1.10;;
11535;SDS011;5824;49.336;8.652;2023-03-11T03:27:34;5.13;;;1.30;;
11535;SDS011;5824;49.336;8.652;2023-03-11T03:30:00;3.37;;;1.47;;
11535;SDS011;5824;49.336;8.652;2023-03-11T03:32:26;2.20;;;1.37;;
11535;SDS011;5824;49.336;8.652;2023-03-11T03:34:51;5.03;;;1.57;;
11535;SDS011;5824;49.336;8.652;2023-03-11T03:37:22;5.10;;;1.40;;
11535;SDS011;5824;49.336;8.652;2023-03-11T03:39:47;4.50;;;1.60;;
11535;SDS011;5824;49.336;8.652;2023-03-11T03:42:13;3.73;;;1.37;;
11535;SDS011;5824;49.336;8.652;2023-03-11T03:44:38;6.20;;;1.80;;
11535;SDS011;5824;49.336;8.652;2023-03-11T03:47:04;7.53;;;1.77;;
11535;SDS011;5824;49.336;8.652;2023-03-11T03:49:29;4.10;;;1.73;;
11535;SDS011;5824;49.336;8.652;2023-03-11T03:51:55;3.73;;;1.50;;
11535;SDS011;5824;49.336;8.652;2023-03-11T03:54:20;3.23;;;1.50;;
11535;SDS011;5824;49.336;8.652;2023-03-11T03:56:46;1.93;;;1.40;;
11535;SDS011;5824;49.336;8.652;2023-03-11T03:59:11;4.50;;;1.30;;
11535;SDS011;5824;49.336;8.652;2023-03-11T04:01:37;2.30;;;1.37;;
11535;SDS011;5824;49.336;8.652;2023-03-11T04:04:02;2.07;;;1.33;;
11535;SDS011;5824;49.336;8.652;2023-03-11T04:06:28;1.83;;;1.47;;
11535;SDS011;5824;49.336;8.652;2023-03-11T04:08:53;2.43;;;1.10;;
11535;SDS011;5824;49.336;8.652;2023-03-11T04:11:19;6.47;;;1.50;;
11535;SDS011;5824;49.336;8.652;2023-03-11T04:13:46;2.33;;;1.50;;
11535;SDS011;5824;49.336;8.652;2023-03-11T04:16:14;3.87;;;1.30;;
11535;SDS011;5824;49.336;8.652;2023-03-11T04:18:45;4.40;;;1.80;;
11535;SDS011;5824;49.336;8.652;2023-03-11T04:21:11;2.07;;;1.23;;
11535;SDS011;5824;49.336;8.652;2023-03-11T04:23:37;3.93;;;1.67;;
11535;SDS011;5824;49.336;8.652;2023-03-11T04:26:03;1.60;;;1.20;;
11535;SDS011;5824;49.336;8.652;2023-03-11T04:28:28;4.10;;;1.90;;
11535;SDS011;5824;49.336;8.652;2023-03-11T04:30:55;5.23;;;1.50;;
11535;SDS011;5824;49.336;8.652;2023-03-11T04:33:20;3.00;;;1.57;;
11535;SDS011;5824;49.336;8.652;2023-03-11T04:35:46;6.03;;;1.57;;
11535;SDS011;5824;49.336;8.652;2023-03-11T04:38:11;1.70;;;1.23;;
11535;SDS011;5824;49.336;8.652;2023-03-11T04:40:37;2.17;;;1.63;;
11535;SDS011;5824;49.336;8.652;2023-03-11T04:43:03;10.23;;;1.60;;
11535;SDS011;5824;49.336;8.652;2023-03-11T04:45:28;3.23;;;1.70;;
11535;SDS011;5824;49.336;8.652;2023-03-11T04:47:54;3.80;;;1.47;;
11535;SDS011;5824;49.336;8.652;2023-03-11T04:50:19;3.13;;;1.50;;
11535;SDS011;5824;49.336;8.652;2023-03-11T04:52:45;3.53;;;1.67;;
11535;SDS011;5824;49.336;8.652;2023-03-11T04:55:11;5.33;;;1.40;;
11535;SDS011;5824;49.336;8.652;2023-03-11T04:57:38;4.20;;;1.57;;
11535;SDS011;5824;49.336;8.652;2023-03-11T05:00:04;3.00;;;1.30;;
11535;SDS011;5824;49.336;8.652;2023-03-11T05:02:33;6.90;;;1.83;;
11535;SDS011;5824;49.336;8.652;2023-03-11T05:04:59;3.30;;;1.70;;
11535;SDS011;5824;49.336;8.652;2023-03-11T05:07:24;5.03;;;1.90;;
11535;SDS011;5824;49.336;8.652;2023-03-11T05:09:50;7.90;;;1.87;;
11535;SDS011;5824;49.336;8.652;2023-03-11T05:12:15;5.57;;;1.70;;
11535;SDS011;5824;49.336;8.652;2023-03-11T05:14:41;3.10;;;1.57;;
11535;SDS011;5824;49.336;8.652;2023-03-11T05:17:06;8.93;;;1.53;;
11535;SDS011;5824;49.336;8.652;2023-03-11T05:19:32;6.57;;;1.77;;
11535;SDS011;5824;49.336;8.652;2023-03-11T05:21:59;4.30;;;1.70;;
11535;SDS011;5824;49.336;8.652;2023-03-11T05:24:25;7.70;;;1.40;;
11535;SDS011;5824;49.336;8.652;2023-03-11T05:26:51;4.40;;;1.40;;
11535;SDS011;5824;49.336;8.652;2023-03-11T05:29:17;8.07;;;1.73;;
11535;SDS011;5824;49.336;8.652;2023-03-11T05:31:43;3.70;;;1.80;;
11535;SDS011;5824;49.336;8.652;2023-03-11T05:34:08;6.20;;;1.73;;
11535;SDS011;5824;49.336;8.652;2023-03-11T05:36:34;6.07;;;1.60;;
11535;SDS011;5824;49.336;8.652;2023-03-11T05:38:59;3.63;;;1.33;;
11535;SDS011;5824;49.336;8.652;2023-03-11T05:41:25;4.37;;;1.47;;
11535;SDS011;5824;49.336;8.652;2023-03-11T05:43:50;8.83;;;1.80;;
11535;SDS011;5824;49.336;8.652;2023-03-11T05:46:16;2.97;;;1.70;;
11535;SDS011;5824;49.336;8.652;2023-03-11T05:48:41;4.53;;;1.60;;
11535;SDS011;5824;49.336;8.652;2023-03-11T05:51:07;10.93;;;1.80;;
11535;SDS011;5824;49.336;8.652;2023-03-11T05:53:34;3.07;;;1.90;;
11535;SDS011;5824;49.336;8.652;2023-03-11T05:56:00;5.93;;;1.90;;
11535;SDS011;5824;49.336;8.652;2023-03-11T05:58:26;4.93;;;1.90;;
11535;SDS011;5824;49.336;8.652;2023-03-11T06:00:55;4.90;;;1.50;;
11535;SDS011;5824;49.336;8.652;2023-03-11T06:03:20;3.53;;;2.20;;
11535;SDS011;5824;49.336;8.652;2023-03-11T06:05:47;4.53;;;1.80;;
11535;SDS011;5824;49.336;8.652;2023-03-11T06:08:14;6.53;;;1.90;;
11535;SDS011;5824;49.336;8.652;2023-03-11T06:10:41;2.50;;;1.57;;
11535;SDS011;5824;49.336;8.652;2023-03-11T06:13:07;4.43;;;2.50;;
11535;SDS011;5824;49.336;8.652;2023-03-11T06:15:33;9.23;;;3.63;;
11535;SDS011;5824;49.336;8.652;2023-03-11T06:18:00;7.63;;;2.60;;
11535;SDS011;5824;49.336;8.652;2023-03-11T06:20:25;5.97;;;2.50;;
11535;SDS011;5824;49.336;8.652;2023-03-11T06:22:51;9.30;;;2.60;;
11535;SDS011;5824;49.336;8.652;2023-03-11T06:25:17;9.53;;;3.90;;
11535;SDS011;5824;49.336;8.652;2023-03-11T06:27:42;8.10;;;3.03;;
11535;SDS011;5824;49.336;8.652;2023-03-11T06:30:12;4.47;;;2.93;;
11535;SDS011;5824;49.336;8.652;2023-03-11T06:32:38;13.37;;;4.17;;
11535;SDS011;5824;49.336;8.652;2023-03-11T06:35:03;5.37;;;2.67;;
11535;SDS011;5824;49.336;8.652;2023-03-11T06:37:29;5.50;;;2.20;;
11535;SDS011;5824;49.336;8.652;2023-03-11T06:39:55;3.20;;;1.90;;
11535;SDS011;5824;49.336;8.652;2023-03-11T06:42:21;4.60;;;1.63;;
11535;SDS011;5824;49.336;8.652;2023-03-11T06:44:50;2.23;;;1.50;;
11535;SDS011;5824;49.336;8.652;2023-03-11T06:47:16;8.20;;;1.90;;
11535;SDS011;5824;49.336;8.652;2023-03-11T06:49:41;7.93;;;1.87;;
11535;SDS011;5824;49.336;8.652;2023-03-11T06:52:07;5.53;;;1.70;;
11535;SDS011;5824;49.336;8.652;2023-03-11T06:54:33;8.93;;;1.60;;
11535;SDS011;5824;49.336;8.652;2023-03-11T06:57:00;5.20;;;1.60;;
11535;SDS011;5824;49.336;8.652;2023-03-11T06:59:26;2.63;;;2.07;;
11535;SDS011;5824;49.336;8.652;2023-03-11T07:01:52;4.30;;;1.73;;
11535;SDS011;5824;49.336;8.652;2023-03-11T07:04:18;8.67;;;1.87;;
11535;SDS011;5824;49.336;8.652;2023-03-11T07:06:44;5.07;;;2.10;;
11535;SDS011;5824;49.336;8.652;2023-03-11T07:09:09;4.80;;;2.50;;
11535;SDS011;5824;49.336;8.652;2023-03-11T07:11:35;6.50;;;2.40;;
11535;SDS011;5824;49.336;8.652;2023-03-11T07:14:01;5.50;;;2.20;;
11535;SDS011;5824;49.336;8.652;2023-03-11T07:16:27;8.00;;;2.70;;
11535;SDS011;5824;49.336;8.652;2023-03-11T07:18:55;5.83;;;2.57;;
11535;SDS011;5824;49.336;8.652;2023-03-11T07:21:24;9.23;;;2.47;;
11535;SDS011;5824;49.336;8.652;2023-03-11T07:23:52;5.17;;;2.17;;
11535;SDS011;5824;49.336;8.652;2023-03-11T07:26:18;7.30;;;2.47;;
11535;SDS011;5824;49.336;8.652;2023-03-11T07:28:44;7.43;;;2.33;;
11535;SDS011;5824;49.336;8.652;2023-03-11T07:31:10;8.57;;;2.53;;
11535;SDS011;5824;49.336;8.652;2023-03-11T07:33:47;4.17;;;2.50;;
11535;SDS011;5824;49.336;8.652;2023-03-11T07:36:15;6.03;;;2.70;;
11535;SDS011;5824;49.336;8.652;2023-03-11T07:38:45;9.73;;;2.00;;
11535;SDS011;5824;49.336;8.652;2023-03-11T07:41:11;4.60;;;2.10;;
11535;SDS011;5824;49.336;8.652;2023-03-11T07:43:38;7.57;;;2.80;;
11535;SDS011;5824;49.336;8.652;2023-03-11T07:46:06;6.80;;;2.30;;
11535;SDS011;5824;49.336;8.652;2023-03-11T07:48:32;4.93;;;2.30;;
11535;SDS011;5824;49.336;8.652;2023-03-11T07:50:59;3.10;;;1.93;;
11535;SDS011;5824;49.336;8.652;2023-03-11T07:53:26;5.87;;;2.33;;
11535;SDS011;5824;49.336;8.652;2023-03-11T07:55:55;3.13;;;2.40;;
11535;SDS011;5824;49.336;8.652;2023-03-11T07:58:22;7.50;;;2.90;;
11535;SDS011;5824;49.336;8.652;2023-03-11T08:00:47;11.37;;;2.40;;
11535;SDS011;5824;49.336;8.652;2023-03-11T08:03:13;3.70;;;2.00;;
11535;SDS011;5824;49.336;8.652;2023-03-11T08:05:38;4.93;;;2.20;;
11535;SDS011;5824;49.336;8.652;2023-03-11T08:08:04;10.60;;;2.50;;
11535;SDS011;5824;49.336;8.652;2023-03-11T08:10:29;6.07;;;2.20;;
11535;SDS011;5824;49.336;8.652;2023-03-11T08:12:55;5.73;;;2.07;;
11535;SDS011;5824;49.336;8.652;2023-03-11T08:15:20;7.57;;;2.70;;
11535;SDS011;5824;49.336;8.652;2023-03-11T08:17:46;6.90;;;2.30;;
11535;SDS011;5824;49.336;8.652;2023-03-11T08:20:11;5.60;;;2.13;;
11535;SDS011;5824;49.336;8.652;2023-03-11T08:22:37;5.60;;;1.73;;
11535;SDS011;5824;49.336;8.652;2023-03-11T08:25:02;5.30;;;2.27;;
11535;SDS011;5824;49.336;8.652;2023-03-11T08:27:28;8.70;;;2.37;;
11535;SDS011;5824;49.336;8.652;2023-03-11T08:29:54;5.17;;;2.20;;
11535;SDS011;5824;49.336;8.652;2023-03-11T08:32:19;6.80;;;2.10;;
11535;SDS011;5824;49.336;8.652;2023-03-11T08:34:45;10.53;;;2.30;;
11535;SDS011;5824;49.336;8.652;2023-03-11T08:37:10;4.00;;;1.93;;
11535;SDS011;5824;49.336;8.652;2023-03-11T08:39:36;9.80;;;2.50;;
11535;SDS011;5824;49.336;8.652;2023-03-11T08:42:01;8.90;;;2.07;;
11535;SDS011;5824;49.336;8.652;2023-03-11T08:44:27;8.00;;;2.20;;
11535;SDS011;5824;49.336;8.652;2023-03-11T08:46:53;3.30;;;1.83;;
11535;SDS011;5824;49.336;8.652;2023-03-11T08:49:19;5.33;;;1.83;;
11535;SDS011;5824;49.336;8.652;2023-03-11T08:51:44;5.73;;;2.20;;
11535;SDS011;5824;49.336;8.652;2023-03-11T08:54:10;5.47;;;2.20;;
11535;SDS011;5824;49.336;8.652;2023-03-11T08:56:35;9.00;;;2.40;;
11535;SDS011;5824;49.336;8.652;2023-03-11T08:59:01;5.57;;;2.17;;
11535;SDS011;5824;49.336;8.652;2023-03-11T09:01:26;7.27;;;2.60;;
11535;SDS011;5824;49.336;8.652;2023-03-11T09:03:53;13.73;;;3.00;;
11535;SDS011;5824;49.336;8.652;2023-03-11T09:06:19;9.23;;;2.90;;
11535;SDS011;5824;49.336;8.652;2023-03-11T09:08:45;7.83;;;2.67;;
11535;SDS011;5824;49.336;8.652;2023-03-11T09:11:12;8.87;;;2.50;;
11535;SDS011;5824;49.336;8.652;2023-03-11T09:13:38;9.40;;;2.90;;
11535;SDS011;5824;49.336;8.652;2023-03-11T09:16:06;9.37;;;2.60;;
11535;SDS011;5824;49.336;8.652;2023-03-11T09:18:34;7.83;;;2.60;;
11535;SDS011;5824;49.336;8.652;2023-03-11T09:20:59;10.40;;;2.80;;
11535;SDS011;5824;49.336;8.652;2023-03-11T09:23:25;6.40;;;2.80;;
11535;SDS011;5824;49.336;8.652;2023-03-11T09:25:50;6.80;;;2.93;;
11535;SDS011;5824;49.336;8.652;2023-03-11T09:28:16;14.73;;;3.13;;
11535;SDS011;5824;49.336;8.652;2023-03-11T09:30:41;8.10;;;2.80;;
11535;SDS011;5824;49.336;8.652;2023-03-11T09:33:07;6.87;;;2.87;;
11535;SDS011;5824;49.336;8.652;2023-03-11T09:35:32;8.03;;;2.07;;
11535;SDS011;5824;49.336;8.652;2023-03-11T09:37:58;4.80;;;2.10;;
11535;SDS011;5824;49.336;8.652;2023-03-11T09:40:24;3.40;;;2.10;;
11535;SDS011;5824;49.336;8.652;2023-03-11T09:43:14;4.60;;;2.20;;
11535;SDS011;5824;49.336;8.652;2023-03-11T09:45:49;4.27;;;2.20;;
11535;SDS011;5824;49.336;8.652;2023-03-11T09:50:59;7.73;;;2.70;;
11535;SDS011;5824;49.336;8.652;2023-03-11T09:56:09;5.43;;;2.63;;
11535;SDS011;5824;49.336;8.652;2023-03-11T09:58:44;5.27;;;2.40;;
11535;SDS011;5824;49.336;8.652;2023-03-11T10:01:14;6.67;;;2.83;;
11535;SDS011;5824;49.336;8.652;2023-03-11T10:03:50;7.00;;;3.10;;
11535;SDS011;5824;49.336;8.652;2023-03-11T10:06:23;5.13;;;2.67;;
11535;SDS011;5824;49.336;8.652;2023-03-11T10:09:02;7.80;;;2.30;;
11535;SDS011;5824;49.336;8.652;2023-03-11T10:14:47;5.27;;;2.43;;
11535;SDS011;5824;49.336;8.652;2023-03-11T10:17:40;8.20;;;2.23;;
11535;SDS011;5824;49.336;8.652;2023-03-11T10:22:51;4.10;;;1.90;;
11535;SDS011;5824;49.336;8.652;2023-03-11T10:25:45;5.40;;;2.30;;
11535;SDS011;5824;49.336;8.652;2023-03-11T10:28:23;12.20;;;2.90;;
11535;SDS011;5824;49.336;8.652;2023-03-11T10:31:29;9.23;;;2.10;;
11535;SDS011;5824;49.336;8.652;2023-03-11T10:34:05;10.23;;;2.10;;
11535;SDS011;5824;49.336;8.652;2023-03-11T10:36:48;9.03;;;1.97;;
11535;SDS011;5824;49.336;8.652;2023-03-11T10:39:15;5.90;;;1.90;;
11535;SDS011;5824;49.336;8.652;2023-03-11T10:41:46;5.77;;;2.50;;
11535;SDS011;5824;49.336;8.652;2023-03-11T10:44:21;4.73;;;1.97;;
11535;SDS011;5824;49.336;8.652;2023-03-11T10:46:48;4.90;;;2.10;;
11535;SDS011;5824;49.336;8.652;2023-03-11T10:49:14;4.77;;;2.40;;
11535;SDS011;5824;49.336;8.652;2023-03-11T10:51:44;3.47;;;1.90;;
11535;SDS011;5824;49.336;8.652;2023-03-11T10:54:19;6.03;;;2.47;;
11535;SDS011;5824;49.336;8.652;2023-03-11T10:56:49;5.67;;;2.30;;
11535;SDS011;5824;49.336;8.652;2023-03-11T11:01:57;3.40;;;2.10;;
11535;SDS011;5824;49.336;8.652;2023-03-11T11:04:28;4.37;;;2.00;;
11535;SDS011;5824;49.336;8.652;2023-03-11T11:10:13;7.10;;;2.10;;
11535;SDS011;5824;49.336;8.652;2023-03-11T11:13:02;4.70;;;1.90;;
11535;SDS011;5824;49.336;8.652;2023-03-11T11:15:52;5.77;;;1.90;;
11535;SDS011;5824;49.336;8.652;2023-03-11T11:18:43;4.20;;;1.80;;
11535;SDS011;5824;49.336;8.652;2023-03-11T11:21:08;5.87;;;1.80;;
11535;SDS011;5824;49.336;8.652;2023-03-11T11:23:45;9.30;;;1.67;;
11535;SDS011;5824;49.336;8.652;2023-03-11T11:26:14;6.00;;;1.90;;
11535;SDS011;5824;49.336;8.652;2023-03-11T11:29:04;6.47;;;1.90;;
11535;SDS011;5824;49.336;8.652;2023-03-11T11:31:37;4.60;;;2.50;;
11535;SDS011;5824;49.336;8.652;2023-03-11T11:34:13;5.90;;;2.10;;
11535;SDS011;5824;49.336;8.652;2023-03-11T11:36:58;4.73;;;1.87;;
11535;SDS011;5824;49.336;8.652;2023-03-11T11:39:27;1.97;;;1.23;;
11535;SDS011;5824;49.336;8.652;2023-03-11T11:41:55;3.47;;;1.47;;
11535;SDS011;5824;49.336;8.652;2023-03-11T11:44:21;4.87;;;2.20;;
11535;SDS011;5824;49.336;8.652;2023-03-11T11:46:54;3.13;;;1.60;;
11535;SDS011;5824;49.336;8.652;2023-03-11T11:49:24;4.20;;;2.23;;
11535;SDS011;5824;49.336;8.652;2023-03-11T11:52:01;4.00;;;1.60;;
11535;SDS011;5824;49.336;8.652;2023-03-11T11:56:57;4.50;;;2.10;;
11535;SDS011;5824;49.336;8.652;2023-03-11T11:59:25;3.50;;;1.63;;
11535;SDS011;5824;49.336;8.652;2023-03-11T12:10:38;3.80;;;1.70;;
11535;SDS011;5824;49.336;8.652;2023-03-11T12:13:27;3.73;;;1.70;;
11535;SDS011;5824;49.336;8.652;2023-03-11T12:16:27;4.40;;;1.77;;
11535;SDS011;5824;49.336;8.652;2023-03-11T12:18:55;5.33;;;1.63;;
11535;SDS011;5824;49.336;8.652;2023-03-11T12:26:53;3.40;;;1.60;;
11535;SDS011;5824;49.336;8.652;2023-03-11T12:29:26;5.63;;;1.87;;
11535;SDS011;5824;49.336;8.652;2023-03-11T12:32:00;5.67;;;2.27;;
11535;SDS011;5824;49.336;8.652;2023-03-11T12:34:27;5.27;;;1.97;;
11535;SDS011;5824;49.336;8.652;2023-03-11T12:36:56;5.73;;;1.90;;
11535;SDS011;5824;49.336;8.652;2023-03-11T12:39:28;7.20;;;1.77;;
11535;SDS011;5824;49.336;8.652;2023-03-11T12:44:41;4.30;;;1.70;;
11535;SDS011;5824;49.336;8.652;2023-03-11T12:49:37;4.30;;;1.77;;
11535;SDS011;5824;49.336;8.652;2023-03-11T12:52:15;4.43;;;1.70;;
11535;SDS011;5824;49.336;8.652;2023-03-11T12:54:47;4.93;;;1.60;;
11535;SDS011;5824;49.336;8.652;2023-03-11T12:57:47;3.40;;;1.40;;
11535;SDS011;5824;49.336;8.652;2023-03-11T13:00:23;4.23;;;1.70;;
11535;SDS011;5824;49.336;8.652;2023-03-11T13:03:54;4.30;;;1.80;;
11535;SDS011;5824;49.336;8.652;2023-03-11T13:08:56;5.50;;;2.00;;
11535;SDS011;5824;49.336;8.652;2023-03-11T13:17:18;6.37;;;2.10;;
11535;SDS011;5824;49.336;8.652;2023-03-11T13:19:53;3.70;;;1.70;;
11535;SDS011;5824;49.336;8.652;2023-03-11T13:22:39;4.33;;;2.07;;
11535;SDS011;5824;49.336;8.652;2023-03-11T13:25:30;13.80;;;2.47;;
11535;SDS011;5824;49.336;8.652;2023-03-11T13:28:02;5.50;;;2.10;;
11535;SDS011;5824;49.336;8.652;2023-03-11T13:31:13;5.07;;;1.90;;
11535;SDS011;5824;49.336;8.652;2023-03-11T13:42:36;3.83;;;2.13;;
11535;SDS011;5824;49.336;8.652;2023-03-11T13:47:57;4.40;;;2.13;;
11535;SDS011;5824;49.336;8.652;2023-03-11T13:50:27;4.80;;;1.93;;
11535;SDS011;5824;49.336;8.652;2023-03-11T13:52:58;6.33;;;1.80;;
11535;SDS011;5824;49.336;8.652;2023-03-11T13:55:32;3.80;;;1.70;;
11535;SDS011;5824;49.336;8.652;2023-03-11T13:57:59;5.30;;;1.80;;
11535;SDS011;5824;49.336;8.652;2023-03-11T14:00:26;4.97;;;1.90;;
11535;SDS011;5824;49.336;8.652;2023-03-11T14:03:03;4.63;;;1.70;;
11535;SDS011;5824;49.336;8.652;2023-03-11T14:05:36;7.20;;;2.40;;
11535;SDS011;5824;49.336;8.652;2023-03-11T14:10:38;2.77;;;1.57;;
11535;SDS011;5824;49.336;8.652;2023-03-11T14:13:05;6.57;;;1.93;;
11535;SDS011;5824;49.336;8.652;2023-03-11T14:15:31;3.40;;;1.70;;
11535;SDS011;5824;49.336;8.652;2023-03-11T14:18:29;3.40;;;1.70;;
11535;SDS011;5824;49.336;8.652;2023-03-11T14:21:04;4.63;;;2.00;;
11535;SDS011;5824;49.336;8.652;2023-03-11T14:23:38;6.87;;;2.50;;
11535;SDS011;5824;49.336;8.652;2023-03-11T14:26:07;5.13;;;2.20;;
11535;SDS011;5824;49.336;8.652;2023-03-11T14:28:37;5.13;;;2.00;;
11535;SDS011;5824;49.336;8.652;2023-03-11T14:31:06;6.57;;;1.90;;
11535;SDS011;5824;49.336;8.652;2023-03-11T14:33:32;5.07;;;1.80;;
11535;SDS011;5824;49.336;8.652;2023-03-11T14:35:58;4.97;;;2.30;;
11535;SDS011;5824;49.336;8.652;2023-03-11T14:38:28;5.03;;;2.07;;
11535;SDS011;5824;49.336;8.652;2023-03-11T14:40:58;4.03;;;2.33;;
11535;SDS011;5824;49.336;8.652;2023-03-11T14:43:26;12.53;;;2.43;;
11535;SDS011;5824;49.336;8.652;2023-03-11T14:46:03;5.70;;;2.50;;
11535;SDS011;5824;49.336;8.652;2023-03-11T14:48:40;3.30;;;2.00;;
11535;SDS011;5824;49.336;8.652;2023-03-11T14:51:11;3.43;;;2.03;;
11535;SDS011;5824;49.336;8.652;2023-03-11T14:53:42;5.30;;;2.87;;
11535;SDS011;5824;49.336;8.652;2023-03-11T14:56:18;4.83;;;2.27;;
11535;SDS011;5824;49.336;8.652;2023-03-11T15:01:31;6.23;;;2.13;;
11535;SDS011;5824;49.336;8.652;2023-03-11T15:04:10;2.77;;;2.30;;
11535;SDS011;5824;49.336;8.652;2023-03-11T15:06:57;5.50;;;2.50;;
11535;SDS011;5824;49.336;8.652;2023-03-11T15:09:23;5.00;;;1.90;;
11535;SDS011;5824;49.336;8.652;2023-03-11T15:11:53;4.30;;;2.27;;
11535;SDS011;5824;49.336;8.652;2023-03-11T15:14:25;4.90;;;2.73;;
11535;SDS011;5824;49.336;8.652;2023-03-11T15:16:51;6.70;;;2.80;;
11535;SDS011;5824;49.336;8.652;2023-03-11T15:21:52;6.60;;;2.63;;
11535;SDS011;5824;49.336;8.652;2023-03-11T15:24:23;4.37;;;2.50;;
11535;SDS011;5824;49.336;8.652;2023-03-11T15:26:57;4.30;;;2.40;;
11535;SDS011;5824;49.336;8.652;2023-03-11T15:29:29;6.30;;;2.33;;
11535;SDS011;5824;49.336;8.652;2023-03-11T15:31:56;6.43;;;3.10;;
11535;SDS011;5824;49.336;8.652;2023-03-11T15:39:20;6.10;;;2.80;;
11535;SDS011;5824;49.336;8.652;2023-03-11T15:41:46;4.17;;;2.90;;
11535;SDS011;5824;49.336;8.652;2023-03-11T15:44:33;6.97;;;3.30;;
11535;SDS011;5824;49.336;8.652;2023-03-11T15:47:16;5.50;;;3.23;;
11535;SDS011;5824;49.336;8.652;2023-03-11T15:49:43;5.23;;;2.90;;
11535;SDS011;5824;49.336;8.652;2023-03-11T15:52:09;6.97;;;3.50;;
11535;SDS011;5824;49.336;8.652;2023-03-11T15:54:35;8.10;;;3.77;;
11535;SDS011;5824;49.336;8.652;2023-03-11T15:57:01;5.13;;;3.10;;
11535;SDS011;5824;49.336;8.652;2023-03-11T15:59:30;6.80;;;2.50;;
11535;SDS011;5824;49.336;8.652;2023-03-11T16:01:58;3.00;;;2.17;;
11535;SDS011;5824;49.336;8.652;2023-03-11T16:04:23;8.00;;;3.50;;
11535;SDS011;5824;49.336;8.652;2023-03-11T16:06:50;6.67;;;2.40;;
11535;SDS011;5824;49.336;8.652;2023-03-11T16:09:15;4.17;;;2.80;;
11535;SDS011;5824;49.336;8.652;2023-03-11T16:11:41;3.10;;;2.13;;
11535;SDS011;5824;49.336;8.652;2023-03-11T16:14:14;3.00;;;1.80;;
11535;SDS011;5824;49.336;8.652;2023-03-11T16:16:41;5.13;;;2.30;;
11535;SDS011;5824;49.336;8.652;2023-03-11T16:19:08;7.63;;;2.30;;
11535;SDS011;5824;49.336;8.652;2023-03-11T16:21:34;3.50;;;2.30;;
11535;SDS011;5824;49.336;8.652;2023-03-11T16:24:03;4.10;;;2.63;;
11535;SDS011;5824;49.336;8.652;2023-03-11T16:26:30;4.20;;;2.43;;
11535;SDS011;5824;49.336;8.652;2023-03-11T16:28:56;5.30;;;2.30;;
11535;SDS011;5824;49.336;8.652;2023-03-11T16:31:22;4.93;;;2.13;;